Datum max min   Außentemperatur Tagesdurchschnitt Außenfeuchte Tagesdurchschnitt Taupunkt Tagesdurchschnitt Windchill Tagesdurchschnitt Windgeschwindigkeit Tagesdurchschnitt Gesamtregen Mindesttemperatur Höchsttemperatur Höchste Windgeschwindigkeit  Tägliche Niederschlagsmenge 
mittel °C % °C °C km/h mm/m² °C °C km/h mm/m²
 
 
1.1.09 1022,4 1019,1 1021,1 -8,6 70,6 -12,9 -8,6 0,8 0,0 -13,1 -5,7 9,3 0,0
2.1.09 1024,0 1019,8 1021,4 -5,1 70,6 -9,6 -5,1 0,7 0,0 -6,8 -2,9 18,7 0,0
3.1.09 1023,9 1016,8 1020,9 -7,8 60,3 -14,4 -8,0 1,2 0,0 -14,5 0,8 18,0 0,0
4.1.09 1016,9 1009,4 1012,9 -5,2 72,9 -9,3 -6,7 5,5 2,5 -6,8 -2,9 28,0 2,5
5.1.09 1017,0 1008,7 1012,0 -5,9 77,7 -9,1 -7,1 5,1 3,5 -10,4 -2,8 34,9 1,0
6.1.09 1018,3 1015,6 1017,0 -14,0 57,2 -20,8 -14,1 0,4 3,5 -19,6 -6,3 11,1 0,0
7.1.09 1020,4 1014,0 1015,7 -11,0 63,4 -16,6 -11,6 2,2 3,5 -18,9 -5,8 20,1 0,0
8.1.09 1026,1 1020,4 1024,5 -7,3 62,1 -13,6 -7,7 2,0 5,2 -14,6 1,3 19,4 1,7
9.1.09 1025,6 1023,9 1024,9 -12,2 54,6 -19,6 -12,7 1,9 5,2 -18,4 -2,9 20,5 0,0
10.1.09 1033,3 1031,7 1032,5 -9,2 50,3 -18,0 -9,9 3,2 5,4 -17,8 0,6 23,4 0,2
11.1.09 1034,6 1032,0 1033,5 -7,9 53,3 -16,2 -8,2 2,1 5,7 -12,0 1,0 19,4 0,3
12.1.09 1033,3 1025,3 1029,4 -9,7 55,4 -17,1 -12,9 7,6 5,7 -13,2 -3,5 25,5 0,0
13.1.09 1025,1 1018,2 1021,6 -9,4 53,8 -17,1 -12,5 7,9 5,7 -14,1 -2,2 29,1 0,0
14.1.09 1019,8 1016,4 1017,6 -8,4 60,1 -14,8 -9,0 2,9 5,7 -12,2 -4,7 19,4 0,0
15.1.09 1026,2 1019,8 1023,2 -2,3 74,8 -6,2 -2,3 0,3 6,1 -5,3 1,8 14,4 0,4
16.1.09 1027,9 1025,4 1026,6 -3,6 76,3 -7,2 -4,2 3,1 6,4 -7,8 1,4 31,6 0,3
17.1.09 1025,4 1018,8 1022,8 -1,6 76,2 -5,2 -1,7 1,9 6,9 -4,9 4,5 17,2 0,5
18.1.09 1015,7 1001,5 1007,7 1,6 77,4 -2,0 -0,6 7,3 15,4 0,2 4,1 33,1 8,5
19.1.09 1008,2 995,3 1001,5 1,2 79,4 -2,0 -1,2 7,6 18,4 -0,9 4,2 32,0 3,0
20.1.09 1004,3 995,0 999,5 1,9 78,6 -1,4 1,3 3,2 19,9 -1,2 4,2 25,5 1,5
21.1.09 1010,1 1003,7 1006,7 -0,2 84,7 -2,5 -0,4 1,7 20,2 -2,0 2,8 17,6 0,3
22.1.09 1010,3 999,7 1006,0 -1,8 78,5 -5,0 -3,0 5,3 20,2 -3,0 1,7 25,8 0,0
23.1.09 999,7 976,0 985,4 -1,4 79,0 -4,6 -5,7 11,7 27,4 -4,7 3,8 48,2 7,2
24.1.09 998,0 982,8 989,5 0,8 72,9 -3,7 0,3 2,9 29,8 -3,5 7,1 31,6 2,4
25.1.09 1002,5 998,4 1001,0 -0,5 76,6 -4,1 -0,5 0,7 30,1 -3,8 3,8 15,8 0,3
26.1.09 1006,3 1000,7 1002,6 -1,4 73,5 -5,5 -1,6 2,4 30,1 -5,1 0,1 20,5 0,0
27.1.09 1015,5 1006,2 1011,0 -1,5 78,1 -4,8 -1,6 1,3 30,1 -2,6 -0,2 19,0 0,0
28.1.09 1019,2 1015,4 1017,2 -2,7 77,7 -6,0 -2,8 1,5 30,1 -3,8 -1,1 17,6 0,0
29.1.09 1023,1 1019,2 1021,0 -3,2 68,0 -8,5 -3,3 1,7 30,2 -9,3 4,8 16,5 0,1
30.1.09 1024,3 1021,9 1023,2 -4,4 65,6 -9,9 -4,9 3,1 30,2 -6,3 -2,8 20,1 0,0
31.1.09 1021,8 1014,3 1018,6 -3,2 59,7 -10,0 -3,9 3,3 30,2 -5,4 3,5 24,1 0,0
1.2.09 1014,1 1007,0 1010,0 -4,8 62,3 -10,9 -8,0 8,1 30,2 -6,5 -2,1 43,8 0,0
2.2.09 1007,7 1002,4 1005,5 -0,9 70,0 -5,7 -8,1 17,3 30,2 -3,5 0,9 51,4 0,0
3.2.09 1002,3 999,8 1000,6 1,3 73,7 -2,8 -1,0 8,0 30,2 -0,4 4,1 41,4 0,0
4.2.09 1000,6 998,4 999,3 -0,6 81,9 -3,3 -1,3 3,8 30,2 -2,4 3,4 21,6 0,0
5.2.09 1000,9 999,3 1000,4 -1,2 81,3 -4,0 -2,3 4,9 30,2 -3,5 2,8 21,8 0,0
6.2.09 1000,0 991,8 996,2 -1,3 77,5 -4,7 -2,9 6,6 30,2 -3,5 2,5 26,6 0,0
7.2.09 992,7 987,5 989,5 0,4 78,7 -2,9 -0,2 3,1 30,2 -1,8 4,9 25,5 0,0
8.2.09 1007,7 992,9 1000,4 0,3 67,9 -5,3 -0,1 3,0 31,3 -3,5 4,7 24,1 1,1
9.2.09 1009,6 1002,0 1007,5 -1,1 58,1 -8,5 -1,7 3,3 31,3 -3,8 2,2 28,4 0,0
10.2.09 1003,4 991,3 995,2 0,7 82,5 -1,9 -2,7 10,4 37,8 -1,4 4,2 49,6 6,5
11.2.09 1010,4 994,1 1005,0 -1,4 80,6 -4,4 -2,7 4,6 37,8 -3,7 0,2 42,1 0,0
12.2.09 1015,5 1008,6 1012,4 -2,8 67,5 -8,2 -3,3 2,8 39,0 -6,3 2,8 21,9 1,2
13.2.09 1015,8 1014,3 1015,0 -3,4 66,8 -8,9 -3,8 2,9 39,8 -7,5 3,1 17,2 0,8
14.2.09 1024,5 1014,4 1019,4 -3,9 66,0 -9,4 -4,2 2,1 40,1 -6,1 1,7 25,2 0,3
15.2.09 1026,3 1021,1 1024,4 -6,7 64,6 -12,3 -7,5 3,0 40,1 -9,2 -4,8 28,8 0,0
16.2.09 1020,9 1014,5 1017,8 -2,9 77,1 -6,3 -4,5 5,8 40,1 -5,6 0,5 29,1 0,0
17.2.09 1022,9 1011,0 1015,8 -3,1 75,1 -7,0 -4,0 4,0 40,1 -7,2 -0,2 25,2 0,0
18.2.09 1024,8 1023,0 1023,8 -5,2 62,3 -11,3 -5,2 1,5 40,2 -8,3 2,8 15,1 0,1
19.2.09 1024,2 1022,7 1023,5 -6,2 56,3 -13,6 -6,6 2,3 40,6 -12,8 -0,2 27,3 0,4
20.2.09 1025,0 1022,1 1023,2 -3,0 79,1 -6,1 -4,2 4,6 40,6 -6,3 -0,2 19,8 0,0
21.2.09 1027,2 1024,8 1026,1 0,6 81,9 -2,1 0,5 2,2 48,5 -0,3 2,8 19,0 7,9
22.2.09 1025,6 1014,4 1019,0 0,2 87,6 -1,6 -1,1 4,7 57,7 -0,8 1,2 27,3 9,2
23.2.09 1014,4 1010,9 1012,3 0,8 85,2 -1,3 -1,7 8,1 72,4 -0,3 1,5 33,1 14,7
24.2.09 1027,0 1014,0 1020,9 -1,1 83,5 -3,5 -1,1 1,2 72,4 -2,2 0,1 20,1 0,0
25.2.09 1028,0 1023,8 1026,5 0,5 68,2 -4,8 0,2 2,1 79,3 -2,3 4,8 13,6 6,9
26.2.09 1023,8 1013,9 1018,4 0,9 77,7 -2,5 -0,6 5,6 87,2 -0,3 2,1 32,7 7,9
27.2.09 1016,8 1012,3 1015,0 2,3 86,0 0,2 -0,6 9,2 95,3 0,8 4,3 38,8 8,1
28.2.09 1017,1 1013,9 1016,0 3,4 94,3 2,5 3,1 2,6 98,1 2,1 6,3 10,8 2,8
1.3.09 1014,1 1011,5 1012,5 2,6 90,6 1,2 2,0 4,0 98,2 1,2 4,5 19,0 0,1
2.3.09 1015,9 1012,1 1013,4 3,1 86,3 1,0 3,0 2,1 98,2 1,0 6,2 11,5 0,0
3.3.09 1016,7 1009,0 1014,5 2,8 75,9 -1,5 2,5 1,8 100,1 -0,9 10,3 16,5 1,9
4.3.09 1008,7 990,2 998,8 3,1 74,0 -1,1 1,0 7,3 100,1 0,2 7,6 36,3 0,0
5.3.09 989,8 985,1 986,6 5,8 72,1 1,0 4,8 5,1 101,5 2,5 10,6 24,1 1,4
6.3.09 1000,5 987,0 992,8 3,6 86,3 1,5 3,6 0,8 104,0 2,4 5,3 12,6 2,5
7.3.09 1013,4 1000,9 1007,9 1,4 82,1 -1,3 0,8 4,1 105,1 -1,3 2,5 25,2 1,1
8.3.09 1013,1 1003,4 1008,4 1,7 82,9 -1,0 1,4 2,8 106,5 -3,7 4,2 27,7 1,4
9.3.09 1012,2 1002,9 1007,7 2,2 74,3 -2,0 0,1 6,9 108,1 0,3 4,8 38,8 1,6
10.3.09 1012,8 1004,7 1009,8 1,7 80,6 -1,2 0,5 5,6 112,4 0,5 3,5 35,2 4,3
11.3.09 1022,0 1005,1 1015,4 1,6 78,1 -1,9 0,8 4,7 117,7 0,2 5,1 25,5 5,3
12.3.09 1022,2 1015,1 1019,6 0,9 82,9 -1,6 0,1 4,5 125,9 -0,9 2,5 29,5 8,2
13.3.09 1021,4 1014,9 1018,4 4,5 70,3 -1,0 3,3 5,5 127,2 -1,4 13,3 31,6 1,3
14.3.09 1021,0 1016,4 1018,4 3,9 67,8 -1,7 3,6 2,4 127,2 -2,3 10,1 14,7 0,0
15.3.09 1027,5 1017,0 1021,8 5,1 82,2 2,3 3,8 6,2 132,0 3,9 6,5 29,5 4,8
16.3.09 1031,7 1027,5 1030,1 4,9 82,0 2,0 4,9 1,4 133,6 3,7 8,2 10,8 1,6
17.3.09 1031,0 1028,5 1029,6 4,9 71,5 -0,1 4,2 3,4 133,6 1,4 10,5 28,0 0,0
18.3.09 1030,5 1024,5 1028,2 4,4 44,0 -8,5 4,0 3,2 133,7 -2,2 12,2 28,2 0,1
19.3.09 1026,2 1021,5 1023,4 0,7 63,9 -5,4 0,6 1,5 134,9 -3,7 7,5 22,3 1,2
20.3.09 1029,7 1026,2 1028,5 -1,9 51,2 -11,0 -2,4 2,8 134,9 -6,3 3,1 23,0 0,0
21.3.09 1029,1 1023,6 1026,4 1,1 40,2 -12,6 1,0 1,6 134,9 -6,8 10,1 21,3 0,0
22.3.09 1023,4 1018,8 1020,4 1,9 50,9 -7,2 -0,4 7,7 134,9 -2,0 5,4 32,7 0,0
23.3.09 1018,8 998,3 1008,2 3,6 72,7 -0,8 -0,8 13,2 140,1 1,4 5,1 48,6 5,2
24.3.09 1008,5 998,3 1002,4 0,4 63,2 -6,1 -2,2 8,9 141,7 -5,3 5,8 51,1 1,6
25.3.09 1008,8 998,7 1003,7 -1,5 70,6 -6,3 -2,2 3,8 145,4 -6,4 2,1 28,8 3,7
26.3.09 1008,3 1000,4 1005,3 2,8 76,2 -1,1 1,8 5,3 149,0 0,3 6,7 32,4 3,6
27.3.09 1003,6 1001,3 1002,4 4,5 76,8 0,7 3,5 5,5 154,1 2,2 7,3 36,0 5,1
28.3.09 1005,4 999,5 1001,6 4,5 75,0 0,4 2,8 6,5 155,5 1,4 8,1 29,1 1,4
29.3.09 1012,4 1005,4 1008,0 4,8 64,3 -1,6 4,6 2,0 155,5 0,2 9,4 12,2 0,0
30.3.09 1022,9 1012,6 1018,3 3,5 66,6 -2,6 3,3 2,0 155,7 -2,7 10,8 24,8 0,2
31.3.09 1023,8 1020,3 1022,4 4,9 48,6 -7,5 4,0 4,1 155,8 -4,9 14,4 29,5 0,1
1.4.09 1020,9 1018,8 1019,5 6,4 59,4 -1,3 5,8 3,4 155,8 -2,2 12,5 24,4 0,0
2.4.09 1020,5 1018,3 1019,5 12,7 44,0 0,4 11,3 6,6 155,8 6,2 19,1 39,9 0,0
3.4.09 1019,0 1017,3 1018,2 14,1 46,9 1,5 13,2 5,8 155,8 7,4 21,6 33,1 0,0
4.4.09 1021,5 1018,8 1019,5 12,7 60,5 4,1 12,4 2,2 155,8 2,7 22,1 25,5 0,0
5.4.09 1023,3 1021,2 1022,1 10,4 76,1 6,1 10,3 1,1 155,8 5,5 16,5 11,1 0,0
6.4.09 1021,5 1014,2 1017,9 11,0 71,7 5,4 10,6 2,8 155,8 4,4 18,4 25,2 0,0
7.4.09 1014,2 1011,5 1012,9 13,4 58,3 2,9 13,3 1,1 155,8 3,5 23,6 27,0 0,0
8.4.09 1017,3 1013,5 1015,2 13,4 58,6 4,5 13,0 3,0 155,8 4,8 21,6 36,0 0,0
9.4.09 1019,3 1016,3 1017,7 13,2 57,2 3,4 13,0 2,0 155,8 3,7 22,4 25,2 0,0
10.4.09 1016,4 1010,1 1013,0 13,5 55,9 2,9 13,0 3,8 155,8 3,1 22,5 31,3 0,0
11.4.09 1011,6 1009,8 1010,5 16,0 45,7 2,1 15,8 3,1 155,8 5,7 24,5 23,4 0,0
12.4.09 1011,8 1010,5 1011,3 15,5 47,6 2,6 15,3 2,4 155,8 4,5 26,2 30,9 0,0
13.4.09 1011,4 1008,4 1010,0 14,0 51,4 2,0 13,9 1,0 155,8 3,3 23,5 12,2 0,0
14.4.09 1011,8 1009,6 1010,2 14,3 50,3 1,8 14,3 1,1 155,8 3,0 25,4 21,8 0,0
15.4.09 1013,0 1011,2 1012,1 14,6 42,9 -0,6 14,1 4,9 155,8 3,7 23,2 30,6 0,0
16.4.09 1012,3 1004,5 1008,9 15,5 36,8 0,2 14,6 5,9 155,8 9,2 21,8 38,1 0,0
17.4.09 1006,3 1004,2 1004,8 8,9 90,2 7,2 8,6 2,9 195,8 6,7 14,9 25,5 40,0
18.4.09 1018,4 1006,4 1011,5 7,7 93,3 6,7 7,7 1,4 198,0 5,4 10,8 10,8 2,2
19.4.09 1023,5 1018,5 1021,5 10,4 73,3 4,9 10,1 2,9 198,0 1,8 20,7 34,9 0,0
20.4.09 1023,7 1021,6 1022,8 12,3 60,0 3,3 12,1 2,6 198,0 2,7 21,8 25,5 0,0
21.4.09 1023,1 1021,1 1022,2 14,1 47,0 0,7 13,9 2,1 198,0 5,5 23,0 18,3 0,0
22.4.09 1022,1 1017,7 1019,8 10,2 56,1 -0,0 9,9 2,5 198,0 0,7 21,2 31,3 0,0
23.4.09 1023,8 1019,2 1021,1 6,4 74,9 1,9 6,2 2,1 200,4 2,1 14,2 24,1 2,4
24.4.09 1024,0 1018,1 1021,6 10,6 62,3 2,2 9,7 5,3 200,4 2,9 18,0 36,7 0,0
25.4.09 1018,1 1015,7 1016,6 14,5 38,7 -0,8 13,6 6,0 200,4 6,5 22,5 24,8 0,0
26.4.09 1015,9 1007,4 1011,8 13,4 52,4 2,9 12,8 4,5 200,4 4,1 20,4 28,8 0,0
27.4.09 1008,3 1003,8 1006,6 16,4 43,4 3,3 16,0 4,1 200,4 10,8 23,4 32,4 0,0
28.4.09 1008,0 1002,2 1004,0 14,1 60,7 5,9 13,1 6,1 209,7 9,1 21,5 32,0 9,3
29.4.09 1012,6 1007,0 1008,7 9,4 90,8 7,9 9,3 1,4 236,5 7,5 11,7 18,3 26,8
30.4.09 1020,0 1012,7 1016,3 11,3 80,8 7,7 11,1 1,4 239,8 8,0 17,5 22,6 3,3
1.5.09 1023,3 1019,5 1021,0 13,8 73,5 8,1 13,6 1,6 244,6 5,3 24,1 12,6 4,8
2.5.09 1026,9 1023,0 1025,0 14,2 60,5 4,5 14,1 1,7 244,7 6,2 22,8 25,2 0,1
3.5.09 1026,8 1019,5 1023,2 13,9 47,7 0,2 13,8 1,9 244,7 1,4 24,7 31,6 0,0
4.5.09 1023,9 1020,8 1022,3 9,6 62,1 2,0 9,4 2,6 249,7 2,2 15,2 25,2 5,0
5.5.09 1023,9 1019,1 1021,3 6,1 68,8 0,2 5,1 4,3 250,1 -1,5 11,8 37,4 0,4
6.5.09 1018,8 1015,0 1016,6 9,9 83,1 7,0 7,7 9,4 254,4 7,6 12,5 46,0 4,3
7.5.09 1020,1 1017,8 1018,8 14,3 62,2 6,2 13,7 4,2 254,4 9,2 21,0 27,0 0,0
8.5.09 1019,3 1014,3 1016,4 14,0 68,7 7,6 13,6 3,2 262,6 6,2 23,6 29,5 8,2
9.5.09 1022,8 1015,8 1020,0 14,7 65,8 7,7 14,4 3,3 262,6 7,2 21,2 27,7 0,0
10.5.09 1021,4 1016,4 1019,5 15,2 68,9 9,0 15,0 2,6 269,5 11,2 21,5 29,1 6,9
11.5.09 1020,6 1016,2 1017,9 12,3 84,5 9,7 12,1 1,8 278,8 8,8 17,9 24,8 9,3
12.5.09 1022,1 1018,9 1021,1 12,1 63,2 4,3 11,7 3,9 279,2 8,1 17,8 18,0 0,4
13.5.09 1021,7 1016,8 1019,3 12,2 54,1 3,0 11,4 5,2 279,2 8,9 16,5 32,7 0,0
14.5.09 1016,8 1011,7 1013,4 11,5 53,9 2,2 9,6 8,8 279,2 8,1 15,6 34,2 0,0
15.5.09 1011,7 1009,8 1010,6 12,2 73,4 7,4 10,7 7,5 279,2 9,4 17,1 27,3 0,0
16.5.09 1019,1 1010,1 1015,3 13,3 62,4 5,3 12,6 5,2 281,1 7,6 18,3 32,7 1,9
17.5.09 1019,2 1014,6 1017,1 15,8 54,5 4,7 15,3 5,1 282,7 4,2 26,4 33,1 1,6
18.5.09 1022,7 1016,5 1020,2 15,7 66,8 8,7 15,5 2,5 286,8 12,3 21,7 27,0 4,1
19.5.09 1023,7 1021,7 1022,8 17,2 50,3 3,9 17,2 1,5 286,8 7,4 25,9 22,6 0,0
20.5.09 1023,5 1019,5 1022,0 19,1 45,8 4,9 18,9 3,3 286,8 8,2 27,5 18,7 0,0
21.5.09 1019,5 1012,9 1016,1 18,4 54,4 8,0 18,1 3,9 296,1 11,9 26,9 43,2 9,3
22.5.09 1019,6 1014,0 1015,5 14,5 79,5 10,7 14,4 1,9 302,3 10,2 20,2 32,7 6,2
23.5.09 1022,7 1019,6 1021,2 14,0 57,2 3,8 14,0 1,2 302,3 3,9 22,6 7,9 0,0
24.5.09 1021,2 1018,8 1019,6 19,8 45,3 6,8 19,6 4,1 302,3 11,9 28,2 30,2 0,0
25.5.09 1021,3 1017,4 1020,0 21,6 51,9 9,4 21,6 1,3 302,3 11,0 31,4 16,2 0,0
26.5.09 1017,2 1012,5 1014,8 21,6 48,5 9,3 20,9 7,5 311,5 14,3 29,4 47,5 9,2
27.5.09 1025,7 1015,7 1023,2 13,6 55,0 3,8 12,7 5,6 316,5 9,5 20,1 33,4 5,0
28.5.09 1027,6 1024,1 1025,0 11,4 68,9 5,8 10,3 6,3 319,6 8,4 15,3 39,6 3,1
29.5.09 1028,3 1026,7 1027,4 9,9 61,5 2,2 9,3 3,9 320,1 3,0 15,5 34,5 0,5
30.5.09 1027,1 1022,0 1024,7 10,9 77,0 6,8 10,6 3,1 321,3 7,4 16,0 24,4 1,2
31.5.09 1023,9 1021,2 1022,9 12,5 76,1 8,1 12,3 2,4 321,3 7,1 16,9 21,2 0,0
1.6.09 1020,9 1018,6 1019,7 16,1 60,7 7,3 15,8 3,6 321,3 10,5 22,7 29,5 0,0
2.6.09 1019,2 1014,3 1016,5 16,8 56,2 6,5 16,7 2,8 321,5 6,6 24,5 28,4 0,2
3.6.09 1014,7 1013,2 1014,0 13,0 39,7 -0,8 12,1 6,1 321,5 8,7 17,0 32,7 0,0
4.6.09 1014,0 1012,1 1013,3 9,6 49,0 -0,9 8,7 5,4 321,5 5,8 12,8 30,2 0,0
5.6.09 1012,0 1009,6 1010,8 10,0 54,2 0,7 9,7 2,9 321,5 6,3 15,9 24,1 0,0
6.6.09 1009,5 1000,1 1003,4 9,8 74,1 5,2 8,8 5,0 330,7 5,0 12,5 38,5 9,2
7.6.09 1009,6 1001,0 1005,2 13,8 70,3 8,0 13,3 4,5 330,9 9,8 20,1 31,6 0,2
8.6.09 1012,5 1009,6 1011,6 15,2 58,5 6,2 14,7 4,1 330,9 9,7 21,1 33,4 0,0
9.6.09 1015,0 1010,5 1012,6 14,7 72,5 9,5 14,5 2,2 337,5 11,3 20,1 21,6 6,6
10.6.09 1017,5 1014,8 1016,5 15,6 61,3 6,8 15,0 4,4 343,1 9,3 21,9 50,7 5,6
11.6.09 1017,9 1010,0 1013,6 13,1 74,7 8,6 11,4 9,2 353,7 10,7 17,3 48,2 10,6
12.6.09 1020,8 1017,9 1019,0 11,5 66,3 4,7 9,8 8,4 355,2 6,8 16,8 50,4 1,5
13.6.09 1022,1 1020,8 1021,4 12,8 50,7 0,2 12,4 3,9 355,2 1,2 21,5 31,6 0,0
14.6.09 1022,2 1018,2 1020,5 16,8 51,2 5,2 16,6 3,0 355,2 3,8 26,1 29,1 0,0
15.6.09 1019,3 1011,9 1016,8 19,7 67,6 12,9 19,5 3,3 373,1 16,0 27,9 32,0 17,9
16.6.09 1025,2 1012,5 1020,2 14,1 75,5 9,2 13,7 3,8 383,1 9,6 20,2 36,0 10,0
17.6.09 1026,7 1021,1 1024,4 15,8 59,0 6,1 15,8 1,5 383,1 6,1 25,1 25,1 0,0
18.6.09 1020,9 1017,6 1019,1 19,8 48,9 8,2 19,4 5,2 383,1 12,7 26,4 38,1 0,0
19.6.09 1021,0 1016,2 1017,6 17,3 59,4 8,7 16,7 4,5 383,4 12,4 20,8 28,4 0,3
20.6.09 1021,6 1020,2 1020,9 14,1 58,0 4,7 14,0 1,7 383,4 8,0 20,8 24,1 0,0
21.6.09 1021,3 1019,3 1020,4 11,2 73,9 6,4 11,1 1,6 388,3 5,5 18,4 22,3 4,9
22.6.09 1023,1 1019,5 1021,6 12,7 72,9 7,7 12,5 2,3 388,6 8,5 18,0 25,2 0,3
23.6.09 1022,8 1019,6 1021,0 12,3 79,6 8,8 11,1 6,3 389,2 10,5 14,7 32,7 0,6
24.6.09 1020,4 1016,1 1018,0 13,3 79,6 9,8 13,0 3,0 389,5 9,7 16,6 27,7 0,3
25.6.09 1016,2 1013,1 1014,1 14,7 91,7 13,2 14,5 2,1 391,7 13,4 15,8 23,0 2,2
26.6.09 1014,1 1012,2 1013,3 18,1 79,6 14,1 18,0 2,3 392,0 14,3 25,3 25,5 0,3
27.6.09 1016,8 1013,5 1014,8 18,7 79,8 14,9 18,5 2,9 392,9 15,4 23,7 27,7 0,9
28.6.09 1018,5 1016,0 1017,1 18,6 71,2 12,6 18,5 2,1 393,2 14,4 24,8 26,6 0,3
29.6.09 1020,8 1018,3 1019,4 18,8 67,0 11,7 18,8 1,4 393,2 10,5 25,8 16,2 0,0
30.6.09 1022,1 1020,3 1021,2 19,7 69,4 13,3 19,7 1,4 399,8 12,8 27,2 29,1 6,6
1.7.09 1022,4 1021,1 1021,9 19,6 76,8 14,6 19,5 1,3 404,8 12,9 29,5 23,4 5,0
2.7.09 1022,1 1017,6 1019,8 20,2 76,3 15,1 20,2 1,0 405,8 14,7 30,5 18,0 1,0
3.7.09 1018,1 1013,2 1015,7 22,1 66,6 14,1 22,1 1,6 409,7 14,4 31,7 19,4 3,9
4.7.09 1015,0 1012,5 1014,0 19,7 74,3 14,6 19,6 2,6 417,0 15,5 27,2 21,6 7,3
5.7.09 1014,2 1011,1 1012,8 20,3 63,1 11,5 20,3 1,1 417,1 12,8 29,3 20,1 0,1
6.7.09 1011,9 1010,2 1011,0 18,2 66,5 11,5 18,1 2,0 418,9 12,2 26,1 23,7 1,8
7.7.09 1011,3 1008,9 1010,1 17,0 69,1 10,7 16,7 3,5 420,6 12,5 23,5 29,5 1,7
8.7.09 1012,9 1009,1 1010,2 13,9 76,0 9,6 12,8 6,1 422,0 12,0 17,1 39,9 1,4
9.7.09 1015,0 1013,0 1014,2 15,0 61,1 6,7 14,1 6,0 422,3 10,5 20,2 36,3 0,3
10.7.09 1016,1 1014,0 1014,7 12,9 68,0 6,7 12,0 5,9 422,5 9,0 17,4 46,5 0,2
11.7.09 1017,7 1016,2 1016,9 13,8 66,5 7,1 13,3 3,9 422,7 10,8 19,5 26,2 0,2
12.7.09 1016,9 1013,7 1015,4 17,1 62,6 9,0 16,8 3,5 423,1 11,3 22,8 29,1 0,4
13.7.09 1016,5 1014,0 1015,4 21,3 54,2 10,2 21,1 3,3 423,1 13,5 27,8 27,0 0,0
14.7.09 1017,8 1014,2 1016,1 20,3 67,7 13,8 20,2 2,5 427,2 16,0 25,8 27,7 4,1
15.7.09 1023,1 1017,7 1020,8 19,0 75,2 14,2 18,9 2,5 432,8 15,1 24,3 25,9 5,6
16.7.09 1024,7 1020,4 1023,3 22,2 54,8 10,7 22,2 2,1 432,8 14,2 30,2 22,3 0,0
17.7.09 1020,1 1008,9 1014,4 20,4 64,1 13,0 20,3 2,8 437,5 14,4 27,5 27,8 4,7
18.7.09 1015,2 1009,2 1011,9 13,7 84,2 11,0 13,0 4,9 450,7 12,5 17,4 37,0 13,2
19.7.09 1019,7 1015,3 1017,0 14,1 79,7 10,4 13,8 3,6 456,2 11,2 18,4 31,3 5,5
20.7.09 1020,1 1018,6 1019,4 14,9 76,2 10,4 14,7 2,5 465,1 10,1 20,4 25,5 8,9
21.7.09 1020,0 1014,4 1017,6 19,2 62,0 10,2 19,0 2,8 465,2 10,7 28,2 22,6 0,1
22.7.09 1014,7 1011,3 1013,3 22,7 52,5 11,9 22,5 4,2 465,2 17,8 28,4 37,0 0,0
23.7.09 1014,4 1008,5 1010,4 20,1 65,4 13,0 20,0 3,4 474,7 15,6 28,3 34,2 9,5
24.7.09 1017,6 1012,7 1015,6 19,1 59,7 9,8 18,5 5,7 474,7 14,8 24,8 43,5 0,0
25.7.09 1024,2 1017,6 1020,8 15,0 71,0 9,5 13,9 6,2 477,2 11,9 19,7 51,4 2,5
26.7.09 1024,8 1021,5 1023,5 16,5 59,9 7,0 16,4 2,2 477,2 10,1 23,3 21,2 0,0
27.7.09 1021,5 1014,4 1017,5 19,8 46,6 6,0 19,5 4,3 477,2 11,2 28,7 23,7 0,0
28.7.09 1023,6 1016,3 1020,9 19,1 55,7 9,3 18,8 2,7 477,2 13,1 25,0 25,2 0,0
29.7.09 1023,8 1018,6 1021,7 18,7 52,6 7,0 18,6 2,9 477,2 9,1 26,7 23,7 0,0
30.7.09 1024,2 1016,0 1020,0 19,1 50,2 7,7 18,5 6,3 477,2 11,8 25,8 37,0 0,0
31.7.09 1025,8 1022,4 1024,1 16,1 53,4 5,4 16,0 1,7 477,2 8,5 24,1 20,8 0,0
1.8.09 1022,4 1014,3 1018,0 19,1 51,3 7,4 18,7 4,2 477,2 9,6 27,4 33,8 0,0
2.8.09 1015,4 1012,1 1013,5 20,1 60,4 11,1 20,0 3,1 481,6 11,8 28,8 36,3 4,4
3.8.09 1018,7 1015,0 1016,7 17,5 74,2 12,6 17,5 1,9 489,8 14,6 23,3 17,6 8,2
4.8.09 1023,6 1018,5 1021,1 17,6 60,0 8,5 17,5 1,9 489,8 10,6 25,2 23,7 0,0
5.8.09 1024,0 1022,3 1023,3 18,9 54,2 7,3 18,9 2,1 489,8 8,5 28,3 22,6 0,0
6.8.09 1023,7 1021,2 1022,6 20,3 54,6 9,4 20,3 1,5 489,8 10,7 30,6 18,0 0,0
7.8.09 1022,0 1019,5 1020,9 21,6 49,5 9,4 21,4 4,5 489,8 13,7 28,1 29,8 0,0
8.8.09 1020,9 1018,0 1019,4 21,3 47,9 8,8 21,1 3,4 489,8 13,3 28,1 19,8 0,0
9.8.09 1019,8 1017,8 1018,9 20,9 42,8 7,1 20,7 3,2 489,8 14,8 26,4 29,5 0,0
10.8.09 1018,6 1016,6 1017,4 19,4 60,0 10,7 19,3 2,5 490,7 13,5 27,5 25,2 0,9
11.8.09 1020,3 1016,8 1018,5 19,5 69,1 13,2 19,1 4,8 490,7 15,9 24,7 31,6 0,0
12.8.09 1020,9 1016,7 1019,6 18,8 64,5 11,3 18,4 4,5 492,5 14,9 23,3 31,2 1,8
13.8.09 1018,1 1015,5 1016,8 17,9 66,2 10,4 17,8 2,4 499,5 13,3 24,2 24,1 7,0
14.8.09 1020,8 1018,2 1019,5 16,7 64,0 8,7 16,7 0,6 499,5 8,5 24,8 14,7 0,0
15.8.09 1021,1 1018,7 1020,1 19,7 55,3 8,7 19,6 2,6 499,5 10,2 28,8 25,5 0,0
16.8.09 1019,4 1017,3 1018,5 22,1 51,0 9,3 22,0 2,4 499,5 11,4 31,1 29,8 0,0
17.8.09 1017,9 1013,5 1016,4 21,7 57,9 11,8 21,5 3,4 502,0 13,8 30,1 32,7 2,5
18.8.09 1024,0 1017,2 1021,5 19,7 57,1 9,3 19,7 1,5 502,1 13,1 27,7 18,7 0,1
19.8.09 1025,2 1023,4 1024,3 20,1 51,1 8,0 20,0 3,3 502,1 9,5 29,8 22,3 0,0
20.8.09 1025,2 1021,0 1023,2 23,9 41,5 8,7 23,7 5,2 502,1 15,4 31,9 27,3 0,0
21.8.09 1023,8 1019,6 1021,4 19,7 67,9 13,2 19,6 2,2 518,4 17,2 23,7 16,9 16,3
22.8.09 1026,6 1022,1 1024,2 18,2 58,3 9,3 18,1 1,7 518,4 11,2 22,7 21,9 0,0
23.8.09 1026,9 1020,8 1024,7 15,8 55,9 5,0 15,5 2,9 518,4 6,1 23,8 27,7 0,0
24.8.09 1020,8 1013,3 1016,3 18,4 50,0 6,4 17,7 6,5 518,4 9,2 26,4 34,9 0,0
25.8.09 1015,6 1013,0 1014,1 21,5 55,4 11,5 21,3 3,9 518,4 14,6 29,2 29,8 0,0
26.8.09 1019,5 1015,5 1018,1 19,0 76,0 14,4 19,0 1,0 524,2 15,1 25,8 15,8 5,8
27.8.09 1020,6 1018,2 1019,3 20,8 63,1 11,8 20,7 2,4 524,2 12,4 29,5 30,6 0,0
28.8.09 1018,5 1014,1 1015,8 20,3 55,9 10,1 19,9 5,0 524,2 12,2 28,2 41,7 0,0
29.8.09 1023,2 1017,0 1019,6 14,7 55,2 4,8 14,0 5,0 524,7 9,2 20,6 35,6 0,5
30.8.09 1023,1 1020,9 1022,3 14,0 53,4 2,2 13,7 3,0 524,7 3,8 21,9 34,5 0,0
31.8.09 1023,2 1018,7 1021,4 16,2 47,2 2,5 16,0 2,9 524,7 5,4 25,1 21,2 0,0
1.9.09 1018,8 1014,3 1016,6 21,5 46,7 8,4 21,2 4,5 524,7 12,1 31,7 38,1 0,0
2.9.09 1018,9 1012,5 1016,8 20,3 57,2 10,6 20,1 3,6 524,7 16,4 25,7 28,4 0,0
3.9.09 1012,2 1006,1 1008,3 18,1 64,3 11,0 17,3 7,0 526,8 13,4 21,6 47,1 2,1
4.9.09 1012,3 1007,4 1009,4 13,9 66,9 7,4 13,4 4,3 548,6 10,1 19,6 32,4 21,8
5.9.09 1023,8 1012,8 1018,7 11,1 81,0 7,7 9,5 7,4 549,9 9,5 16,0 37,8 1,3
6.9.09 1026,3 1023,8 1025,3 12,9 68,4 6,6 12,7 2,2 549,9 9,1 18,7 30,2 0,0
7.9.09 1025,8 1024,4 1025,1 15,5 58,7 6,3 15,4 2,2 549,9 9,5 23,3 20,5 0,0
8.9.09 1027,4 1025,0 1026,1 16,5 56,6 6,0 16,5 2,3 549,9 7,5 27,1 19,4 0,0
9.9.09 1025,8 1024,0 1025,2 17,5 52,3 5,4 17,5 1,1 549,9 6,7 28,4 15,8 0,0
10.9.09 1029,3 1025,6 1027,3 15,4 66,6 8,3 15,2 2,8 549,9 6,3 24,2 27,7 0,0
11.9.09 1029,8 1027,0 1028,5 15,2 64,5 7,9 14,9 2,8 549,9 8,9 21,7 27,2 0,0
12.9.09 1026,9 1022,9 1024,9 12,3 63,6 4,4 12,2 1,5 549,9 4,4 21,7 21,2 0,0
13.9.09 1022,9 1015,3 1018,7 10,5 74,5 5,7 10,3 2,3 555,5 4,8 18,8 21,7 5,6
14.9.09 1018,0 1016,5 1017,3 10,5 93,2 9,4 10,2 2,2 573,9 8,8 12,7 29,1 18,4
15.9.09 1017,9 1016,7 1017,3 14,8 84,2 12,0 14,3 4,0 574,4 12,7 18,9 30,9 0,5
16.9.09 1017,1 1014,5 1015,7 14,7 91,0 13,1 14,5 2,4 574,4 12,7 19,0 22,6 0,0
17.9.09 1020,2 1014,2 1016,9 13,1 96,0 12,4 12,4 4,6 574,7 11,4 15,5 25,2 0,3
18.9.09 1020,8 1019,1 1020,0 16,0 76,3 11,3 15,8 2,4 574,7 11,2 21,5 21,6 0,0
19.9.09 1019,1 1017,3 1018,2 17,2 63,0 9,2 17,0 2,9 574,7 10,7 24,7 26,2 0,0
20.9.09 1021,9 1018,4 1019,6 17,3 73,1 11,5 17,3 0,8 574,7 10,5 26,1 15,4 0,0
21.9.09 1026,0 1022,0 1024,3 14,1 83,8 11,2 14,0 1,2 574,7 9,1 20,5 20,8 0,0
22.9.09 1026,9 1025,1 1026,1 16,8 72,4 10,7 16,9 1,5 574,7 11,4 24,6 24,4 0,0
23.9.09 1026,9 1024,3 1025,8 15,9 66,8 8,4 15,7 2,4 574,7 7,1 24,8 28,0 0,0
24.9.09 1025,1 1022,3 1023,8 13,7 85,3 11,1 13,5 1,4 576,0 10,5 19,5 18,3 1,3
25.9.09 1027,4 1024,5 1025,8 13,6 72,2 7,8 13,5 1,6 576,0 7,5 22,1 16,9 0,0
26.9.09 1028,2 1026,4 1027,2 11,8 66,3 4,4 11,7 2,1 576,0 2,7 21,3 19,0 0,0
27.9.09 1027,1 1024,7 1025,9 12,9 65,5 5,0 12,8 1,1 576,0 2,8 23,5 15,8 0,0
28.9.09 1025,6 1020,4 1023,5 12,4 68,2 5,8 12,2 1,9 576,0 3,3 20,9 26,2 0,0
29.9.09 1020,4 1018,4 1019,3 12,3 80,9 9,0 11,5 5,1 576,0 11,2 13,4 27,3 0,0
30.9.09 1019,6 1015,8 1017,9 12,4 86,6 10,1 12,3 2,0 577,7 9,4 17,2 19,8 1,7
1.10.09 1016,0 1012,2 1013,8 12,0 80,6 8,4 11,2 5,0 578,7 7,7 19,5 36,3 1,0
2.10.09 1017,4 1014,9 1015,8 8,9 76,9 4,9 8,3 2,9 579,5 6,1 12,3 20,1 0,8
3.10.09 1018,2 1011,3 1014,9 9,6 66,6 3,1 9,2 3,4 579,5 1,2 15,7 27,7 0,0
4.10.09 1016,5 1010,0 1012,3 11,2 71,0 6,0 10,1 5,8 581,7 8,8 12,7 38,8 2,2
5.10.09 1019,4 1015,8 1017,3 11,3 82,6 8,0 11,3 1,1 590,9 8,4 17,4 15,8 9,2
6.10.09 1016,3 1014,5 1015,4 15,2 82,9 12,1 14,9 3,3 593,2 11,1 20,9 30,9 2,3
7.10.09 1018,0 1012,5 1016,1 18,3 76,0 13,7 18,1 3,0 593,2 15,8 22,8 25,5 0,0
8.10.09 1019,7 1010,4 1014,4 15,7 77,6 11,6 15,3 3,9 599,9 11,0 21,5 36,0 6,7
9.10.09 1023,2 1018,8 1021,1 10,6 71,1 4,9 10,3 2,5 599,9 6,6 17,1 21,2 0,0
10.10.09 1018,9 1012,9 1014,9 9,7 85,9 7,3 9,5 2,5 615,7 6,8 11,7 18,7 15,8
11.10.09 1015,0 1006,8 1012,8 10,3 88,4 8,4 9,5 4,6 624,0 9,4 11,5 33,1 8,3
12.10.09 1020,6 1003,7 1011,6 5,9 89,5 4,3 5,2 4,3 634,2 3,0 9,7 32,0 10,2
13.10.09 1023,9 1020,4 1021,9 3,5 83,6 0,8 3,0 3,8 636,0 1,1 7,8 36,7 1,8
14.10.09 1024,8 1023,3 1024,0 1,5 73,1 -3,0 0,9 3,8 636,5 0,5 4,1 27,7 0,5
15.10.09 1023,1 1021,0 1022,0 0,2 79,1 -3,0 -0,3 3,9 637,4 -0,7 1,1 28,0 0,9
16.10.09 1021,8 1010,6 1015,6 1,6 93,1 0,7 0,1 6,3 649,9 0,2 4,3 30,2 12,5
17.10.09 1019,7 1014,0 1016,4 2,2 95,0 1,4 2,1 1,7 661,6 0,8 4,2 19,0 11,7
18.10.09 1021,4 1019,0 1019,9 2,9 91,7 1,6 2,8 1,0 665,7 1,7 6,3 19,8 4,1
19.10.09 1021,3 1017,3 1019,8 2,8 79,0 -1,0 2,8 0,5 665,7 -2,1 11,4 10,8 0,0
20.10.09 1017,3 1012,2 1014,3 0,9 75,3 -3,3 0,4 2,9 665,7 -4,9 8,4 27,7 0,0
21.10.09 1012,6 1007,2 1010,7 2,8 73,6 -1,7 1,5 5,5 665,7 -1,7 10,2 26,8 0,0
22.10.09 1007,4 1004,2 1005,9 4,4 85,0 2,0 2,8 5,4 670,7 1,1 7,7 34,2 5,0
23.10.09 1016,1 1007,5 1011,8 7,2 90,5 5,7 7,0 1,8 670,7 4,7 11,3 14,7 0,0
24.10.09 1019,6 1016,2 1018,3 7,3 87,1 5,2 7,2 2,3 670,7 5,6 10,1 18,0 0,0
25.10.09 1018,6 1016,1 1017,0 8,8 89,1 7,0 8,4 3,0 670,7 5,5 12,8 18,3 0,0
26.10.09 1020,0 1017,7 1018,6 8,4 85,8 6,0 8,1 2,1 670,9 4,1 13,5 25,2 0,2
27.10.09 1023,4 1019,9 1022,0 9,8 82,9 6,9 9,4 2,7 671,2 8,5 11,8 21,2 0,3
28.10.09 1022,8 1019,5 1021,3 8,6 78,5 4,6 8,5 0,8 671,2 3,5 14,4 18,0 0,0
29.10.09 1026,3 1019,0 1021,8 7,3 85,2 4,8 7,3 0,5 671,2 2,5 12,3 22,3 0,0
30.10.09 1028,9 1026,2 1027,7 5,7 81,1 2,6 5,5 2,3 671,2 -1,1 10,1 19,0 0,0
31.10.09 1028,8 1025,3 1027,2 -1,0 83,2 -3,5 -1,6 3,8 671,2 -3,9 2,1 22,8 0,0
1.11.09 1025,2 1010,4 1018,7 1,3 85,4 -0,9 -0,2 6,1 671,2 -0,8 4,1 23,4 0,0
2.11.09 1009,9 1001,3 1004,7 1,1 90,7 -0,3 0,0 4,7 694,7 -0,5 2,0 30,2 23,5
3.11.09 1001,1 996,0 999,9 3,7 92,3 2,5 3,4 2,4 702,8 0,4 5,4 21,9 8,1
4.11.09 996,4 987,9 992,0 4,7 89,5 3,0 3,7 5,1 710,8 1,2 11,0 41,4 8,0
5.11.09 1005,4 996,2 1000,8 6,0 73,1 1,4 5,1 5,8 710,8 4,1 11,5 31,3 0,0
6.11.09 1011,1 1005,6 1009,1 3,6 79,4 0,3 3,1 3,8 710,8 0,8 10,4 27,0 0,0
7.11.09 1009,9 1002,6 1004,9 1,8 90,9 0,4 0,7 5,0 710,8 0,1 3,8 22,6 0,0
8.11.09 1006,8 1004,3 1005,9 3,7 80,9 0,6 3,4 3,0 710,8 1,7 5,9 16,9 0,0
9.11.09 1010,1 1005,3 1007,4 3,1 93,1 2,1 2,8 2,3 722,0 2,8 3,8 25,2 11,2
10.11.09 1010,6 1008,7 1009,8 3,1 87,6 1,2 2,9 2,2 722,0 2,2 5,1 19,8 0,0
11.11.09 1011,1 1008,2 1009,4 3,7 88,0 1,9 3,2 3,4 722,0 2,8 5,2 21,6 0,0
12.11.09 1014,0 1009,7 1011,4 4,1 79,7 0,7 3,3 3,9 722,0 2,5 8,6 29,5 0,0
13.11.09 1017,2 1013,5 1015,3 8,0 85,7 5,7 7,9 2,1 722,0 4,5 11,4 21,6 0,0
14.11.09 1016,6 1012,5 1014,3 8,3 85,0 5,8 7,8 3,3 722,0 5,6 10,8 30,2 0,0
15.11.09 1017,7 1013,4 1015,9 8,5 73,1 3,8 8,1 2,7 722,0 6,2 13,1 19,0 0,0
16.11.09 1013,8 1011,8 1013,1 8,1 90,1 6,5 8,0 1,7 727,1 5,4 11,4 21,9 5,1
17.11.09 1018,2 1010,4 1013,2 10,8 85,4 8,4 10,4 3,3 728,5 7,0 12,9 29,5 1,4
18.11.09 1022,6 1018,4 1020,7 7,4 74,3 3,0 6,1 6,1 728,5 6,5 9,1 39,2 0,0
19.11.09 1025,3 1021,3 1024,0 8,1 69,3 2,4 7,8 2,9 728,5 3,7 14,5 29,5 0,0
20.11.09 1026,2 1023,3 1024,5 7,0 77,8 2,8 6,2 4,0 728,9 3,0 17,0 24,8 0,4
21.11.09 1028,4 1021,1 1025,7 8,2 75,5 3,9 8,2 1,2 728,9 3,2 15,5 16,9 0,0
22.11.09 1026,2 1023,3 1024,5 7,0 77,0 2,8 6,2 4,0 728,9 3,0 17,0 26,4 0,0
23.11.09 1026,2 1005,5 1013,5 6,9 71,1 1,9 5,4 6,8 735,6 3,0 10,1 45,7 6,7
24.11.09 1024,2 1005,7 1013,5 8,4 79,7 5,0 7,0 6,6 737,5 4,3 10,7 50,0 1,9
25.11.09 1016,1 1009,1 1012,5 9,9 74,0 5,3 8,6 4,8 737,6 7,8 14,2 24,4 0,1
26.11.09 1014,0 1009,8 1012,1 7,6 74,5 3,2 6,9 4,4 739,4 6,1 9,9 29,5 1,8
27.11.09 1011,9 1006,0 1008,3 6,0 73,6 1,5 3,9 8,2 739,6 3,3 9,6 41,0 0,2
28.11.09 1010,4 1006,2 1008,4 6,1 75,4 2,0 4,3 7,3 740,1 4,2 8,5 34,5 0,5
29.11.09 1006,7 1000,1 1004,4 6,3 67,8 0,7 4,9 6,1 740,1 3,2 11,3 27,7 0,0
30.11.09 999,9 995,2 997,2 4,2 83,1 1,5 3,8 2,6 740,1 1,8 7,1 30,6 0,0
1.12.09 1011,0 998,8 1004,7 3,2 93,0 2,1 3,0 1,8 754,8 2,4 4,7 17,6 14,7
2.12.09 1014,0 1011,0 1012,7 1,6 91,2 0,3 0,9 3,7 754,8 0,3 3,1 27,0 0,0
3.12.09 1011,5 1006,9 1008,9 1,3 89,4 -0,2 0,4 5,2 754,8 -0,7 4,5 25,9 0,0
4.12.09 1014,4 1005,5 1008,6 0,7 91,4 -0,5 0,2 3,0 754,9 -1,1 3,8 18,0 0,1
5.12.09 1015,1 1012,9 1014,1 0,8 86,9 -1,2 0,1 4,1 755,6 -2,1 2,7 28,8 0,7
6.12.09 1013,6 1009,6 1011,7 4,6 91,1 3,2 4,3 3,5 756,8 1,9 6,4 18,7 1,2
7.12.09 1014,9 1010,3 1013,0 6,0 89,7 4,3 5,9 1,5 757,2 1,9 10,1 13,3 0,4
8.12.09 1017,9 1006,8 1011,1 5,2 92,5 4,0 4,1 5,3 760,8 3,5 6,6 34,9 3,6
9.12.09 1027,1 1017,9 1023,1 3,2 91,0 1,8 2,7 3,2 760,8 1,1 4,6 20,8 0,0
10.12.09 1026,9 1017,1 1020,5 2,4 94,0 1,5 1,7 3,2 767,4 -0,7 5,3 23,4 6,6
11.12.09 1023,4 1015,3 1018,9 1,6 94,2 0,8 0,8 3,8 772,0 -0,1 4,9 25,5 4,6
12.12.09 1023,1 1021,5 1022,4 -1,0 90,6 -2,3 -1,4 2,7 772,6 -2,1 -0,1 22,3 0,6
13.12.09 1021,6 1018,5 1019,8 -3,3 88,3 -4,9 -3,5 2,1 772,6 -5,8 -1,9 19,4 0,0
14.12.09 1020,7 1018,2 1019,2 -4,0 84,0 -6,2 -4,2 2,7 772,6 -4,9 -2,5 17,2 0,0
15.12.09 1019,0 1013,9 1015,9 -2,6 87,4 -4,4 -2,8 2,2 772,6 -3,2 -0,4 19,0 0,0
16.12.09 1013,6 1007,4 1009,9 -4,9 85,0 -7,0 -4,9 0,7 772,6 -9,6 0,9 13,6 0,0
17.12.09 1008,2 1005,3 1006,6 -6,9 86,0 -8,8 -6,9 0,8 772,6 -8,5 -5,4 16,9 0,0
18.12.09 1007,6 1002,2 1003,8 -9,8 85,6 -11,7 -10,0 2,2 772,6 -14,9 -6,6 19,0 0,0
19.12.09 1005,3 1001,7 1003,0 -15,2 83,0 -17,4 -15,2 1,0 772,6 -16,2 -12,2 7,5 0,0
20.12.09 1005,2 998,2 1002,8 -12,5 81,9 -15,0 -14,0 4,5 772,6 -17,4 -5,9 32,4 0,0
21.12.09 1004,7 997,8 1002,1 -3,7 85,5 -5,8 -5,5 6,2 772,6 -6,6 -0,7 38,1 0,0
22.12.09 997,6 990,5 992,8 0,4 90,1 -1,0 -1,4 6,2 773,8 -4,5 6,7 30,9 1,2
23.12.09 1003,0 990,2 997,0 1,0 93,0 0,0 0,9 1,5 777,5 0,1 2,7 20,8 3,7
24.12.09 1002,1 989,9 996,5 0,5 92,4 -0,5 -0,8 5,7 778,0 -0,1 1,3 28,0 0,5
25.12.09 1003,9 985,8 993,5 3,5 87,5 1,6 1,9 7,3 781,9 1,1 8,2 47,5 3,9
26.12.09 1010,4 1004,3 1008,3 0,8 81,0 -2,1 -0,8 5,8 781,9 -3,4 5,6 41,4 0,0
27.12.09 1009,4 1003,8 1006,3 -2,6 87,6 -4,4 -2,8 1,7 781,9 -6,1 0,9 16,2 0,0
28.12.09 1008,3 1002,5 1004,7 0,7 89,5 -0,8 -0,3 4,0 783,6 -0,6 1,3 31,6 1,7
29.12.09 1008,4 998,7 1004,6 -2,6 90,9 -3,8 -3,8 5,0 783,6 -6,7 -0,3 33,8 0,0
30.12.09 998,5 994,9 996,2 3,9 95,3 3,2 3,9 0,9 794,5 -0,9 7,5 21,9 10,9
31.12.09 996,2 993,0 994,5 5,0 95,0 4,2 4,9 1,5 797,2 3,6 5,6 16,2 2,7